Time;durP1;ratioP1;P1;durP2;ratioP2;P2;SDS_P1;SDS_P2;PMS_P1;PMS_P2;Temp;Humidity;BMP_temperature;BMP_pressure;BME280_temperature;BME280_humidity;BME280_pressure;Samples;Min_cycle;Max_cycle;Signal;HPM_P1;HPM_P2
2023/01/12 00:01:33;;;;;;;20.77;2.57;;;;;;;-145.18;100.00;46720.94;6151921;23;20009;-73
2023/01/12 00:03:58;;;;;;;19.10;3.30;;;;;;;-145.18;100.00;46719.00;6151951;23;20689;-74
2023/01/12 00:06:24;;;;;;;20.07;3.17;;;;;;;-145.18;100.00;46719.00;6151635;23;20235;-74
2023/01/12 00:08:50;;;;;;;16.17;2.30;;;;;;;-145.18;100.00;46715.09;6152458;23;20005;-73
2023/01/12 00:11:18;;;;;;;20.13;2.80;;;;;;;-145.18;100.00;46713.13;6151604;23;20033;-73
2023/01/12 00:13:44;;;;;;;19.57;3.17;;;;;;;-145.18;100.00;46719.00;6152245;23;20232;-73
2023/01/12 00:16:33;;;;;;;30.80;3.90;;;;;;;-145.18;100.00;46711.19;6151873;23;20290;-74
2023/01/12 00:19:11;;;;;;;28.13;3.97;;;;;;;-145.18;100.00;46711.19;6152382;23;20056;-73
2023/01/12 00:24:39;;;;;;;17.27;3.53;;;;;;;-145.18;100.00;46717.03;6152067;23;20282;-73
2023/01/12 00:27:11;;;;;;;26.90;4.27;;;;;;;-145.18;100.00;46707.28;6151902;23;20235;-73
2023/01/12 00:29:36;;;;;;;30.97;4.67;;;;;;;-145.18;100.00;46709.22;6151879;23;20302;-73
2023/01/12 00:32:03;;;;;;;35.43;5.20;;;;;;;-145.18;100.00;46705.31;6151672;23;20681;-73
2023/01/12 00:34:28;;;;;;;24.63;4.00;;;;;;;-145.18;100.00;46711.19;6152018;23;20013;-73
2023/01/12 00:36:54;;;;;;;26.80;5.10;;;;;;;-145.18;100.00;46705.31;6151940;23;20314;-73
2023/01/12 00:39:20;;;;;;;27.13;5.97;;;;;;;-145.18;100.00;46703.38;6151654;23;20017;-73
2023/01/12 00:47:15;;;;;;;32.80;4.80;;;;;;;-145.18;100.00;46699.47;6151747;23;20235;-74
2023/01/12 00:49:41;;;;;;;40.77;5.53;;;;;;;-145.18;100.00;46699.47;6150770;23;20236;-73
2023/01/12 00:52:10;;;;;;;26.90;4.90;;;;;;;-145.18;100.00;46705.31;6151675;23;20656;-73
2023/01/12 00:54:35;;;;;;;24.20;4.40;;;;;;;-145.18;100.00;46711.19;6149754;23;20001;-73
2023/01/12 00:57:02;;;;;;;33.13;5.10;;;;;;;-145.18;100.00;46697.50;6151639;23;20238;-73
2023/01/12 00:59:28;;;;;;;29.07;4.60;;;;;;;-145.18;100.00;46711.19;6152369;23;20040;-73
2023/01/12 01:01:54;;;;;;;37.80;7.80;;;;;;;-145.18;100.00;46691.66;6153406;23;20309;-73
2023/01/12 01:04:19;;;;;;;27.67;4.90;;;;;;;-145.18;100.00;46703.38;6155809;23;20695;-72
2023/01/12 01:06:45;;;;;;;29.20;5.83;;;;;;;-145.18;100.00;46693.59;6153608;23;20347;-72
2023/01/12 01:09:10;;;;;;;32.33;4.87;;;;;;;-145.18;100.00;46687.75;6153439;23;20427;-72
2023/01/12 01:11:36;;;;;;;28.93;4.73;;;;;;;-145.18;100.00;46697.50;6153122;23;20017;-72
2023/01/12 01:14:03;;;;;;;30.80;5.87;;;;;;;-145.18;100.00;46693.59;6153268;23;20475;-72
2023/01/12 01:16:28;;;;;;;30.77;5.70;;;;;;;-145.18;100.00;46695.56;6152712;23;20574;-72
2023/01/12 01:18:54;;;;;;;28.50;6.00;;;;;;;-145.18;100.00;46687.75;6153648;23;20239;-72
2023/01/12 01:21:20;;;;;;;31.43;6.23;;;;;;;-145.18;100.00;46691.66;6151242;23;20420;-73
2023/01/12 01:23:45;;;;;;;22.03;4.17;;;;;;;-145.18;100.00;46693.59;6153465;23;20416;-72
2023/01/12 01:26:14;;;;;;;27.67;5.40;;;;;;;-145.18;100.00;46689.69;6153205;23;20423;-72
2023/01/12 01:28:40;;;;;;;20.87;5.20;;;;;;;-145.18;100.00;46693.59;6153181;23;20005;-72
2023/01/12 01:31:13;;;;;;;23.03;4.70;;;;;;;-145.18;100.00;46695.56;6153083;23;20592;-72
2023/01/12 01:33:39;;;;;;;22.30;4.10;;;;;;;-145.18;100.00;46693.59;6153152;23;21125;-72
2023/01/12 01:36:05;;;;;;;16.17;3.43;;;;;;;-145.18;100.00;46695.56;6153381;23;20256;-72
2023/01/12 01:38:31;;;;;;;17.33;3.30;;;;;;;-145.18;100.00;46691.66;6152629;23;20012;-72
2023/01/12 01:40:57;;;;;;;20.13;3.40;;;;;;;-145.18;100.00;46697.50;6153333;23;20590;-72
2023/01/12 01:43:24;;;;;;;22.23;4.00;;;;;;;-145.18;100.00;46691.66;6150997;23;20010;-72
2023/01/12 01:46:03;;;;;;;19.63;2.90;;;;;;;-145.18;100.00;46693.59;6151916;23;20064;-72
2023/01/12 01:48:32;;;;;;;15.67;3.03;;;;;;;-145.18;100.00;46705.31;6152470;23;20286;-71
2023/01/12 01:51:03;;;;;;;15.43;3.00;;;;;;;-145.18;100.00;46685.78;6152934;23;20232;-72
2023/01/12 01:53:33;;;;;;;15.13;2.80;;;;;;;-145.18;100.00;46691.66;6151303;23;20235;-72
2023/01/12 01:56:03;;;;;;;19.20;3.67;;;;;;;-145.18;100.00;46693.59;6153016;23;20231;-71
2023/01/12 01:58:39;;;;;;;16.27;2.90;;;;;;;-145.18;100.00;46693.59;6152422;23;20286;-71
2023/01/12 02:01:06;;;;;;;14.83;2.43;;;;;;;-145.18;100.00;46695.56;6151119;23;20262;-72
2023/01/12 02:03:33;;;;;;;12.10;2.17;;;;;;;-145.18;100.00;46689.69;6152709;23;20327;-72
2023/01/12 02:05:58;;;;;;;12.50;2.07;;;;;;;-145.18;100.00;46693.59;6153002;23;20248;-71
2023/01/12 02:08:33;;;;;;;12.87;1.80;;;;;;;-145.18;100.00;46697.50;6152474;23;20251;-71
2023/01/12 02:11:00;;;;;;;13.40;2.03;;;;;;;-145.18;100.00;46693.59;6152564;23;20037;-71
2023/01/12 02:16:20;;;;;;;15.83;3.10;;;;;;;-145.18;100.00;46695.56;6153362;23;20298;-71
2023/01/12 02:18:59;;;;;;;21.57;3.33;;;;;;;-145.18;100.00;46685.78;6153686;23;20541;-71
2023/01/12 02:21:33;;;;;;;15.93;2.67;;;;;;;-145.18;100.00;46701.41;6152798;23;20705;-71
2023/01/12 02:24:16;;;;;;;14.63;2.97;;;;;;;-145.18;100.00;46687.75;6153417;23;20346;-71
2023/01/12 02:27:18;;;;;;;17.37;3.90;;;;;;;-145.18;100.00;46689.69;6152752;23;20664;-71
2023/01/12 02:30:22;;;;;;;14.13;3.87;;;;;;;-145.18;100.00;46689.69;6153201;23;20222;-71
2023/01/12 02:32:59;;;;;;;13.40;3.53;;;;;;;-145.18;100.00;46695.56;6133348;23;20275;-71
2023/01/12 02:36:07;;;;;;;19.93;3.27;;;;;;;-145.18;100.00;46687.75;6152480;23;20303;-71
2023/01/12 02:38:42;;;;;;;13.67;3.70;;;;;;;-145.18;100.00;46689.69;6152332;23;20626;-71
2023/01/12 02:44:31;;;;;;;16.50;4.80;;;;;;;-145.18;100.00;46689.69;6153025;23;20060;-71
2023/01/12 02:46:59;;;;;;;14.93;3.70;;;;;;;-145.18;100.00;46691.66;6152351;23;20303;-72
2023/01/12 02:49:30;;;;;;;18.87;3.67;;;;;;;-145.18;100.00;46695.56;6152591;23;20231;-72
2023/01/12 02:52:01;;;;;;;23.53;4.83;;;;;;;-145.18;100.00;46689.69;6152677;23;20354;-71
2023/01/12 02:54:29;;;;;;;25.40;4.23;;;;;;;-145.18;100.00;46691.66;6152709;23;20259;-72
2023/01/12 02:57:01;;;;;;;14.87;4.07;;;;;;;-145.18;100.00;46691.66;6152715;23;20238;-71
2023/01/12 02:59:30;;;;;;;18.10;4.20;;;;;;;-145.18;100.00;46689.69;6152668;23;20601;-71
2023/01/12 03:02:01;;;;;;;16.30;3.53;;;;;;;-145.18;100.00;46689.69;6138699;23;20512;-72
2023/01/12 03:04:30;;;;;;;12.30;3.03;;;;;;;-145.18;100.00;46687.75;6149262;23;20295;-72
2023/01/12 03:06:55;;;;;;;20.03;4.57;;;;;;;-145.18;100.00;46687.75;6152126;23;20248;-73
2023/01/12 03:09:29;;;;;;;15.03;3.67;;;;;;;-145.18;100.00;46691.66;6152003;23;20494;-72
2023/01/12 03:12:02;;;;;;;17.80;3.97;;;;;;;-145.18;100.00;46687.75;6152413;23;20001;-72
2023/01/12 03:14:30;;;;;;;15.23;4.10;;;;;;;-145.18;100.00;46695.56;6152747;23;20228;-72
2023/01/12 03:16:55;;;;;;;16.80;3.63;;;;;;;-145.18;100.00;46685.78;6151864;23;20228;-72
2023/01/12 03:19:26;;;;;;;14.60;3.90;;;;;;;-145.18;100.00;46687.75;6152622;23;20239;-72
2023/01/12 03:21:59;;;;;;;17.03;4.20;;;;;;;-145.18;100.00;46699.47;6152073;23;20010;-72
2023/01/12 03:24:29;;;;;;;17.70;3.00;;;;;;;-145.18;100.00;46689.69;6152214;23;20224;-72
2023/01/12 03:27:01;;;;;;;12.97;3.13;;;;;;;-145.18;100.00;46689.69;6151827;23;20728;-72
2023/01/12 03:29:34;;;;;;;11.27;2.77;;;;;;;-145.18;100.00;46689.69;6152550;23;20227;-72
2023/01/12 03:32:00;;;;;;;10.43;2.73;;;;;;;-145.18;100.00;46689.69;6151973;23;20215;-73
2023/01/12 03:34:27;;;;;;;13.27;2.63;;;;;;;-145.18;100.00;46687.75;6152671;23;20471;-72
2023/01/12 03:37:04;;;;;;;11.27;2.43;;;;;;;-145.18;100.00;46683.84;6152680;23;20005;-72
2023/01/12 03:39:37;;;;;;;10.17;2.47;;;;;;;-145.18;100.00;46689.69;6152693;23;20227;-73
2023/01/12 03:42:16;;;;;;;10.93;2.30;;;;;;;-145.18;100.00;46691.66;6151705;23;20283;-72
2023/01/12 03:44:50;;;;;;;10.77;2.63;;;;;;;-145.18;100.00;46691.66;6152742;23;20219;-72
2023/01/12 03:47:23;;;;;;;9.27;1.87;;;;;;;-145.18;100.00;46699.47;6152172;23;20239;-72
2023/01/12 03:49:57;;;;;;;11.03;2.57;;;;;;;-145.18;100.00;46691.66;6152322;23;20231;-72
2023/01/12 03:52:24;;;;;;;11.93;2.63;;;;;;;-145.18;100.00;46693.59;6151879;23;20223;-72
2023/01/12 03:54:52;;;;;;;17.80;2.33;;;;;;;-145.18;100.00;46697.50;6152682;23;20560;-72
2023/01/12 03:57:20;;;;;;;12.60;2.17;;;;;;;-145.18;100.00;46689.69;6125778;23;20271;-72
2023/01/12 03:59:46;;;;;;;11.00;2.70;;;;;;;-145.18;100.00;46691.66;6152669;23;20263;-72
2023/01/12 04:02:11;;;;;;;14.73;2.63;;;;;;;-145.18;100.00;46683.84;6120461;23;20272;-72
2023/01/12 04:04:37;;;;;;;18.90;3.30;;;;;;;-145.18;100.00;46687.75;6123165;23;20511;-72
2023/01/12 04:07:03;;;;;;;10.87;2.03;;;;;;;-145.18;100.00;46691.66;6122468;23;20016;-72
2023/01/12 04:09:28;;;;;;;11.47;2.30;;;;;;;-145.18;100.00;46689.69;6123133;23;20331;-72
2023/01/12 04:12:09;;;;;;;17.00;2.60;;;;;;;-145.18;100.00;46699.47;6122564;23;20422;-72
2023/01/12 04:14:34;;;;;;;15.50;2.40;;;;;;;-145.18;100.00;46689.69;6123294;23;20014;-72
2023/01/12 04:17:00;;;;;;;9.17;1.90;;;;;;;-145.18;100.00;46697.50;6122375;23;20303;-72
2023/01/12 04:19:25;;;;;;;9.17;1.70;;;;;;;-145.18;100.00;46685.78;6123034;23;20010;-72
2023/01/12 04:24:34;;;;;;;10.50;2.03;;;;;;;-145.18;100.00;46693.59;6123146;23;20094;-72
2023/01/12 04:27:00;;;;;;;13.17;3.67;;;;;;;-145.18;100.00;46683.84;6122564;23;20263;-72
2023/01/12 04:29:25;;;;;;;8.00;1.73;;;;;;;-145.18;100.00;46693.59;6122543;23;20009;-72
2023/01/12 04:31:50;;;;;;;11.73;2.03;;;;;;;-145.18;100.00;46691.66;6122918;23;20536;-72
2023/01/12 04:34:16;;;;;;;12.73;1.73;;;;;;;-145.18;100.00;46687.75;6123181;23;20014;-72
2023/01/12 04:36:42;;;;;;;12.30;2.27;;;;;;;-145.18;100.00;46695.56;6124940;23;20093;-72
2023/01/12 04:39:07;;;;;;;15.00;2.77;;;;;;;-145.18;100.00;46691.66;6124445;23;20092;-71
2023/01/12 04:41:33;;;;;;;9.83;1.93;;;;;;;-145.18;100.00;46697.50;6124696;23;20335;-72
2023/01/12 04:43:58;;;;;;;14.13;1.83;;;;;;;-145.18;100.00;46691.66;6124091;23;20041;-72
2023/01/12 04:46:24;;;;;;;11.23;2.17;;;;;;;-145.18;100.00;46693.59;6124852;23;20010;-71
2023/01/12 04:48:49;;;;;;;10.80;2.10;;;;;;;-145.18;100.00;46691.66;6124499;23;20010;-71
2023/01/12 04:51:14;;;;;;;9.73;1.70;;;;;;;-145.18;100.00;46691.66;6124283;23;20383;-71
2023/01/12 04:53:40;;;;;;;13.97;1.60;;;;;;;-145.18;100.00;46699.47;6124393;23;20099;-71
2023/01/12 04:56:06;;;;;;;10.77;1.97;;;;;;;-145.18;100.00;46691.66;6124828;23;20010;-71
2023/01/12 04:58:32;;;;;;;12.20;1.53;;;;;;;-145.18;100.00;46697.50;6124361;23;20033;-71
2023/01/12 05:01:06;;;;;;;7.20;1.60;;;;;;;-145.18;100.00;46685.78;6124109;23;20252;-71
2023/01/12 05:03:31;;;;;;;16.63;1.80;;;;;;;-145.18;100.00;46687.75;6145123;23;20013;-71
2023/01/12 05:05:57;;;;;;;6.20;1.30;;;;;;;-145.18;100.00;46691.66;6153591;23;20673;-71
2023/01/12 05:11:05;;;;;;;8.43;1.37;;;;;;;-145.18;100.00;46691.66;6153041;23;20019;-71
2023/01/12 05:13:31;;;;;;;12.63;2.27;;;;;;;-145.18;100.00;46685.78;6102557;23;20572;-71
2023/01/12 05:16:06;;;;;;;10.83;1.97;;;;;;;-145.18;100.00;46685.78;6127078;23;20089;-71
2023/01/12 05:18:31;;;;;;;9.95;1.42;;;;;;;-145.18;100.00;46691.66;6153664;23;20011;-71
2023/01/12 05:20:57;;;;;;;13.07;2.40;;;;;;;-145.18;100.00;46687.75;6153589;23;20037;-71
2023/01/12 05:23:22;;;;;;;12.47;2.40;;;;;;;-145.18;100.00;46687.75;6153707;23;20006;-71
2023/01/12 05:25:47;;;;;;;9.37;2.00;;;;;;;-145.18;100.00;46685.78;6153543;23;20614;-71
2023/01/12 05:28:13;;;;;;;6.13;1.47;;;;;;;-145.18;100.00;46691.66;6153141;23;20009;-71
2023/01/12 05:30:38;;;;;;;6.07;1.47;;;;;;;-145.18;100.00;46687.75;6153922;23;20009;-71
2023/01/12 05:33:03;;;;;;;13.50;3.17;;;;;;;-145.18;100.00;46687.75;6153177;23;20009;-71
2023/01/12 05:35:29;;;;;;;5.17;1.17;;;;;;;-145.18;100.00;46683.84;6127825;23;20053;-71
2023/01/12 05:37:55;;;;;;;6.93;1.30;;;;;;;-145.18;100.00;46683.84;6152529;23;20043;-71
2023/01/12 05:40:21;;;;;;;6.60;1.10;;;;;;;-145.18;100.00;46679.94;6153749;23;20057;-70
2023/01/12 05:45:33;;;;;;;5.20;1.00;;;;;;;-145.18;100.00;46687.75;6153098;23;20793;-70
2023/01/12 05:48:00;;;;;;;4.00;1.00;;;;;;;-145.18;100.00;46683.84;6126832;23;20251;-71
2023/01/12 05:50:26;;;;;;;3.27;1.00;;;;;;;-145.18;100.00;46677.97;6154036;23;20024;-70
2023/01/12 05:52:52;;;;;;;3.67;0.97;;;;;;;-145.18;100.00;46693.59;6152279;23;20882;-70
2023/01/12 05:55:17;;;;;;;10.20;1.53;;;;;;;-145.18;100.00;46689.69;6152505;23;20239;-71
2023/01/12 05:57:43;;;;;;;7.10;2.30;;;;;;;-145.18;100.00;46679.94;6126674;23;20005;-71
2023/01/12 06:00:09;;;;;;;2.93;0.80;;;;;;;-145.18;100.00;46693.59;6153320;23;20334;-71
2023/01/12 06:02:35;;;;;;;4.17;1.10;;;;;;;-145.18;100.00;46687.75;6153063;23;20355;-71
2023/01/12 06:05:00;;;;;;;4.53;1.07;;;;;;;-145.18;100.00;46676.03;6152962;23;20232;-71
2023/01/12 06:07:25;;;;;;;7.40;1.20;;;;;;;-145.18;100.00;46689.69;6153327;23;20013;-71
2023/01/12 06:09:51;;;;;;;2.80;1.00;;;;;;;-145.18;100.00;46677.97;6153311;23;20009;-71
2023/01/12 06:15:00;;;;;;;2.50;1.00;;;;;;;-145.18;100.00;46685.78;6153300;23;20021;-71
2023/01/12 06:17:25;;;;;;;7.00;1.40;;;;;;;-145.18;100.00;46679.94;6153096;23;20227;-71
2023/01/12 06:19:52;;;;;;;5.57;0.80;;;;;;;-145.18;100.00;46681.88;6153378;23;20084;-71
2023/01/12 06:22:18;;;;;;;2.03;1.07;;;;;;;-145.18;100.00;46685.78;6153079;23;20014;-71
2023/01/12 06:24:47;;;;;;;3.77;0.67;;;;;;;-145.18;100.00;46683.84;6152013;23;20742;-71
2023/01/12 06:27:13;;;;;;;6.50;1.30;;;;;;;-145.18;100.00;46679.94;6152063;23;20232;-71
2023/01/12 06:29:38;;;;;;;7.20;1.00;;;;;;;-145.18;100.00;46685.78;6151770;23;20282;-71
2023/01/12 06:32:04;;;;;;;5.27;1.40;;;;;;;-145.18;100.00;46677.97;6151630;23;20466;-70
2023/01/12 06:34:33;;;;;;;2.67;0.80;;;;;;;-145.18;100.00;46683.84;6151832;23;20013;-71
2023/01/12 06:36:59;;;;;;;4.17;1.20;;;;;;;-145.18;100.00;46679.94;6151487;23;20005;-71
2023/01/12 06:39:24;;;;;;;6.70;1.53;;;;;;;-145.18;100.00;46679.94;6151838;23;20234;-71
2023/01/12 06:44:33;;;;;;;4.37;1.20;;;;;;;-145.18;100.00;46677.97;6151744;23;20073;-71
2023/01/12 06:47:01;;;;;;;5.73;1.60;;;;;;;-145.18;100.00;46677.97;6151398;23;20232;-71
2023/01/12 06:49:26;;;;;;;4.00;0.97;;;;;;;-145.18;100.00;46683.84;6151754;23;20017;-71
2023/01/12 06:51:51;;;;;;;4.77;0.83;;;;;;;-145.18;100.00;46683.84;6151611;23;20302;-71
2023/01/12 06:54:17;;;;;;;3.63;1.43;;;;;;;-145.18;100.00;46679.94;6151244;23;20005;-71
2023/01/12 06:56:42;;;;;;;5.90;0.90;;;;;;;-145.18;100.00;46683.84;6151792;23;20002;-71
2023/01/12 06:59:11;;;;;;;7.57;1.13;;;;;;;-145.18;100.00;46676.03;6151076;23;20568;-71
2023/01/12 07:01:37;;;;;;;4.00;1.10;;;;;;;-145.18;100.00;46676.03;6151707;23;20017;-71
2023/01/12 07:04:02;;;;;;;5.30;1.00;;;;;;;-145.18;100.00;46679.94;6150929;23;20339;-71
2023/01/12 07:06:27;;;;;;;4.47;0.83;;;;;;;-145.18;100.00;46676.03;6151863;23;20467;-71
2023/01/12 07:08:53;;;;;;;5.60;1.00;;;;;;;-145.18;100.00;46676.03;6151517;23;20040;-71
2023/01/12 07:11:18;;;;;;;3.20;0.70;;;;;;;-145.18;100.00;46687.75;6152407;23;20068;-71
2023/01/12 07:13:44;;;;;;;4.83;0.73;;;;;;;-145.18;100.00;46676.03;6152508;23;20499;-71
2023/01/12 07:16:09;;;;;;;7.00;0.93;;;;;;;-145.18;100.00;46679.94;6152483;23;20064;-71
2023/01/12 07:18:35;;;;;;;7.03;1.53;;;;;;;-145.18;100.00;46679.94;6152604;23;20085;-71
2023/01/12 07:21:09;;;;;;;5.23;0.70;;;;;;;-145.18;100.00;46681.88;6152505;23;20010;-72
2023/01/12 07:23:36;;;;;;;3.80;0.70;;;;;;;-145.18;100.00;46679.94;6152322;23;20009;-71
2023/01/12 07:26:02;;;;;;;2.13;0.63;;;;;;;-145.18;100.00;46677.97;6151855;23;20211;-71
2023/01/12 07:28:30;;;;;;;5.40;0.60;;;;;;;-145.18;100.00;46683.84;6152287;23;20293;-71
2023/01/12 07:31:00;;;;;;;3.87;0.90;;;;;;;-145.18;100.00;46674.06;6152497;23;20689;-71
2023/01/12 07:33:25;;;;;;;3.77;0.83;;;;;;;-145.18;100.00;46679.94;6152528;23;20227;-71
2023/01/12 07:35:51;;;;;;;3.57;0.80;;;;;;;-145.18;100.00;46679.94;6152581;23;20701;-71
2023/01/12 07:38:16;;;;;;;2.53;0.70;;;;;;;-145.18;100.00;46674.06;6152174;23;20080;-71
2023/01/12 07:40:42;;;;;;;5.60;1.17;;;;;;;-145.18;100.00;46681.88;6152783;23;20013;-71
2023/01/12 07:43:08;;;;;;;3.90;1.00;;;;;;;-145.18;100.00;46677.97;6152014;23;20018;-71
2023/01/12 07:45:34;;;;;;;4.53;0.70;;;;;;;-145.18;100.00;46685.78;6152414;23;20486;-71
2023/01/12 07:47:59;;;;;;;7.13;1.13;;;;;;;-145.18;100.00;46683.84;6151617;23;20613;-71
2023/01/12 07:50:27;;;;;;;10.90;1.23;;;;;;;-145.18;100.00;46677.97;6152641;23;20220;-71
2023/01/12 07:52:53;;;;;;;2.90;0.80;;;;;;;-145.18;100.00;46677.97;6152082;23;20781;-71
2023/01/12 07:55:18;;;;;;;3.70;1.10;;;;;;;-145.18;100.00;46676.03;6152593;23;20339;-71
2023/01/12 07:57:58;;;;;;;6.40;1.10;;;;;;;-145.18;100.00;46677.97;6126464;23;20232;-71
2023/01/12 08:00:24;;;;;;;4.33;0.80;;;;;;;-145.18;100.00;46674.06;6152538;23;20011;-71
2023/01/12 08:02:51;;;;;;;7.07;1.73;;;;;;;-145.18;100.00;46672.13;6152078;23;20275;-71
2023/01/12 08:05:17;;;;;;;3.43;1.23;;;;;;;-145.18;100.00;46676.03;6125849;23;20251;-71
2023/01/12 08:07:43;;;;;;;7.43;0.80;;;;;;;-145.18;100.00;46676.03;6152053;23;20017;-71
2023/01/12 08:10:10;;;;;;;10.40;1.17;;;;;;;-145.18;100.00;46676.03;6151876;23;20010;-71
2023/01/12 08:12:35;;;;;;;5.83;1.20;;;;;;;-145.18;100.00;46670.16;6152650;23;20010;-71
2023/01/12 08:15:02;;;;;;;4.37;1.07;;;;;;;-145.18;100.00;46674.06;6152047;23;20248;-71
2023/01/12 08:17:33;;;;;;;3.93;0.87;;;;;;;-145.18;100.00;46679.94;6152643;23;20080;-71
2023/01/12 08:20:04;;;;;;;3.23;1.10;;;;;;;-145.18;100.00;46685.78;6152144;23;20446;-71
2023/01/12 08:22:35;;;;;;;4.23;0.90;;;;;;;-145.18;100.00;46677.97;6152433;23;20701;-70
2023/01/12 08:25:05;;;;;;;3.20;0.80;;;;;;;-145.18;100.00;46676.03;6151926;23;20315;-71
2023/01/12 08:27:36;;;;;;;6.20;1.23;;;;;;;-145.18;100.00;46677.97;6152346;23;20351;-71
2023/01/12 08:30:06;;;;;;;6.40;1.77;;;;;;;-145.18;100.00;46676.03;6151923;23;20008;-71
2023/01/12 08:32:33;;;;;;;3.70;1.00;;;;;;;-145.18;100.00;46676.03;6152410;23;20091;-71
2023/01/12 08:35:02;;;;;;;2.50;0.70;;;;;;;-145.18;100.00;46681.88;6151834;23;20053;-71
2023/01/12 08:37:28;;;;;;;3.67;1.00;;;;;;;-145.18;100.00;46679.94;6126055;23;20009;-71
2023/01/12 08:39:54;;;;;;;3.53;1.07;;;;;;;-145.18;100.00;46677.97;6152214;23;20063;-71
2023/01/12 08:42:23;;;;;;;2.90;0.93;;;;;;;-145.18;100.00;46677.97;6151916;23;20010;-71
2023/01/12 08:44:48;;;;;;;4.80;1.27;;;;;;;-145.18;100.00;46681.88;6151861;23;20430;-71
2023/01/12 08:47:19;;;;;;;5.40;0.80;;;;;;;-145.18;100.00;46679.94;6152143;23;20020;-71
2023/01/12 08:49:45;;;;;;;3.43;0.90;;;;;;;-145.18;100.00;46679.94;6152115;23;20106;-71
2023/01/12 08:52:11;;;;;;;2.57;0.70;;;;;;;-145.18;100.00;46679.94;6152016;23;20013;-71
2023/01/12 08:54:36;;;;;;;3.33;0.90;;;;;;;-145.18;100.00;46681.88;6152170;23;20450;-71
2023/01/12 08:57:03;;;;;;;4.60;1.33;;;;;;;-145.18;100.00;46677.97;6152001;23;20036;-71
2023/01/12 08:59:28;;;;;;;3.77;1.10;;;;;;;-145.18;100.00;46681.88;6152068;23;20013;-71
2023/01/12 09:01:54;;;;;;;4.50;0.90;;;;;;;-145.18;100.00;46679.94;6152212;23;20323;-71
2023/01/12 09:04:19;;;;;;;2.43;0.90;;;;;;;-145.18;100.00;46676.03;6151733;23;20105;-71
2023/01/12 09:06:45;;;;;;;2.03;0.87;;;;;;;-145.18;100.00;46677.97;6152017;23;20037;-71
2023/01/12 09:09:14;;;;;;;5.33;1.00;;;;;;;-145.18;100.00;46677.97;6151638;23;20473;-71
2023/01/12 09:11:41;;;;;;;1.97;0.73;;;;;;;-145.18;100.00;46679.94;6152177;23;20232;-71
2023/01/12 09:14:08;;;;;;;4.03;0.73;;;;;;;-145.18;100.00;46677.97;6151483;23;20423;-71
2023/01/12 09:16:34;;;;;;;3.30;0.90;;;;;;;-145.18;100.00;46681.88;6152288;23;20133;-72
2023/01/12 09:19:00;;;;;;;2.97;0.70;;;;;;;-145.18;100.00;46687.75;6151641;23;20037;-71
2023/01/12 09:21:27;;;;;;;6.77;1.47;;;;;;;-145.18;100.00;46685.78;6153832;23;20451;-70
2023/01/12 09:23:53;;;;;;;4.20;1.00;;;;;;;-145.18;100.00;46676.03;6153591;23;20022;-70
2023/01/12 09:26:22;;;;;;;5.17;0.90;;;;;;;-145.18;100.00;46677.97;6153843;23;20384;-70
2023/01/12 09:28:50;;;;;;;6.00;1.03;;;;;;;-145.18;100.00;46677.97;6153789;23;20006;-70
2023/01/12 09:31:18;;;;;;;4.50;0.80;;;;;;;-145.18;100.00;46676.03;6153834;23;20088;-70
2023/01/12 09:33:44;;;;;;;3.97;1.20;;;;;;;-145.18;100.00;46677.97;6153313;23;20366;-70
2023/01/12 09:36:11;;;;;;;3.20;1.17;;;;;;;-145.18;100.00;46674.06;6153690;23;20056;-70
2023/01/12 09:38:38;;;;;;;2.40;0.73;;;;;;;-145.18;100.00;46677.97;6153615;23;20005;-70
2023/01/12 09:47:04;;;;;;;3.10;0.90;;;;;;;-145.18;100.00;46677.97;6153593;23;20509;-71
2023/01/12 09:49:34;;;;;;;3.40;0.90;;;;;;;-145.18;100.00;46668.22;6153388;23;20231;-70
2023/01/12 09:52:21;;;;;;;2.67;0.83;;;;;;;-145.18;100.00;46676.03;6153526;23;20040;-71
2023/01/12 09:54:50;;;;;;;5.60;1.17;;;;;;;-145.18;100.00;46676.03;6153276;23;20017;-70
2023/01/12 09:57:39;;;;;;;3.43;0.60;;;;;;;-145.18;100.00;46672.13;6153488;23;20010;-70
2023/01/12 10:00:04;;;;;;;0.80;0.40;;;;;;;-145.18;100.00;46676.03;6153268;23;20014;-70
2023/01/12 10:02:36;;;;;;;2.70;0.50;;;;;;;-145.18;100.00;46674.06;6153244;23;20096;-71
2023/01/12 10:05:10;;;;;;;1.53;0.60;;;;;;;-145.18;100.00;46674.06;6153088;23;20002;-71
2023/01/12 10:07:35;;;;;;;0.70;0.53;;;;;;;-145.18;100.00;46674.06;6153844;23;20534;-70
2023/01/12 10:10:01;;;;;;;3.17;0.60;;;;;;;-145.18;100.00;46677.97;6152792;23;20084;-71
2023/01/12 10:12:34;;;;;;;0.87;0.50;;;;;;;-145.18;100.00;46668.22;6153678;23;20080;-71
2023/01/12 10:15:06;;;;;;;3.10;0.50;;;;;;;-145.18;100.00;46672.13;6152965;23;20331;-71
2023/01/12 10:18:02;;;;;;;3.47;0.60;;;;;;;-145.18;100.00;46674.06;6153623;23;20077;-70
2023/01/12 10:20:38;;;;;;;2.63;0.43;;;;;;;-145.18;100.00;46681.88;6152906;23;20064;-71
2023/01/12 10:23:06;;;;;;;1.07;0.40;;;;;;;-145.18;100.00;46670.16;6153187;23;20080;-71
2023/01/12 10:25:37;;;;;;;1.27;0.60;;;;;;;-145.18;100.00;46674.06;6153161;23;20006;-71
2023/01/12 10:28:15;;;;;;;2.23;0.67;;;;;;;-145.18;100.00;46674.06;6153380;23;20036;-71
2023/01/12 10:30:41;;;;;;;1.13;0.63;;;;;;;-145.18;100.00;46677.97;6153358;23;20005;-71
2023/01/12 10:33:11;;;;;;;1.53;0.60;;;;;;;-145.18;100.00;46668.22;6152916;23;20439;-71
2023/01/12 10:36:03;;;;;;;2.80;0.67;;;;;;;-145.18;100.00;46674.06;6153017;23;20010;-71
2023/01/12 10:38:33;;;;;;;2.47;0.50;;;;;;;-145.18;100.00;46672.13;6153559;23;20045;-71
2023/01/12 10:41:16;;;;;;;1.47;0.60;;;;;;;-145.18;100.00;46674.06;6153373;23;20005;-70
2023/01/12 10:44:03;;;;;;;1.67;0.63;;;;;;;-145.18;100.00;46674.06;6152802;23;20076;-71
2023/01/12 10:46:33;;;;;;;3.07;0.50;;;;;;;-145.18;100.00;46672.13;6153299;23;20009;-70
2023/01/12 10:49:16;;;;;;;1.80;0.60;;;;;;;-145.18;100.00;46676.03;6152892;23;20064;-70
2023/01/12 10:51:58;;;;;;;2.60;0.53;;;;;;;-145.18;100.00;46679.94;6153566;23;20374;-70
2023/01/12 10:54:25;;;;;;;1.03;0.60;;;;;;;-145.18;100.00;46672.13;6152695;23;20052;-71
2023/01/12 10:57:16;;;;;;;1.97;0.57;;;;;;;-145.18;100.00;46672.13;6152900;23;20025;-71
2023/01/12 10:59:53;;;;;;;3.37;0.50;;;;;;;-145.18;100.00;46674.06;6153093;23;20005;-70
2023/01/12 11:02:18;;;;;;;2.40;0.50;;;;;;;-145.18;100.00;46679.94;6152318;23;20005;-71
2023/01/12 11:04:45;;;;;;;2.53;0.50;;;;;;;-145.18;100.00;46672.13;6152909;23;20320;-71
2023/01/12 11:07:21;;;;;;;2.27;0.67;;;;;;;-145.18;100.00;46676.03;6152690;23;20350;-70
2023/01/12 11:09:47;;;;;;;2.65;0.82;;;;;;;-145.18;100.00;46672.13;6152606;23;20056;-70
2023/01/12 11:12:37;;;;;;;1.63;0.67;;;;;;;-145.18;100.00;46668.22;6152696;23;20084;-71
2023/01/12 11:15:02;;;;;;;0.50;0.50;;;;;;;-145.18;100.00;46664.31;6152237;23;20084;-70
2023/01/12 11:17:55;;;;;;;3.03;0.63;;;;;;;-145.18;100.00;46668.22;6153103;23;20056;-70
2023/01/12 11:20:36;;;;;;;3.17;0.70;;;;;;;-145.18;100.00;46676.03;6152257;23;20339;-70
2023/01/12 11:23:08;;;;;;;2.47;0.50;;;;;;;-145.18;100.00;46672.13;6152943;23;20005;-71
2023/01/12 11:25:40;;;;;;;1.63;0.50;;;;;;;-145.18;100.00;46670.16;6127525;23;20080;-71
2023/01/12 11:28:29;;;;;;;0.50;0.30;;;;;;;-145.18;100.00;46674.06;6152239;23;20013;-71
2023/01/12 11:31:06;;;;;;;3.00;0.60;;;;;;;-145.18;100.00;46677.97;6153247;23;20338;-71
2023/01/12 11:33:39;;;;;;;1.17;0.40;;;;;;;-145.18;100.00;46676.03;6152600;23;20032;-70
2023/01/12 11:36:08;;;;;;;0.80;0.53;;;;;;;-145.18;100.00;46676.03;6151051;23;20009;-70
2023/01/12 11:38:48;;;;;;;1.17;0.50;;;;;;;-145.18;100.00;46670.16;6152639;23;19998;-71
2023/01/12 11:41:28;;;;;;;0.90;0.40;;;;;;;-145.18;100.00;46674.06;6151774;23;20482;-71
2023/01/12 11:44:20;;;;;;;0.83;0.47;;;;;;;-145.18;100.00;46676.03;6152220;23;20423;-71
2023/01/12 11:46:58;;;;;;;1.30;0.80;;;;;;;-145.18;100.00;46676.03;6152746;23;20005;-71
2023/01/12 11:49:32;;;;;;;4.07;0.97;;;;;;;-145.18;100.00;46674.06;6152181;23;20048;-70
2023/01/12 11:51:59;;;;;;;1.83;1.20;;;;;;;-145.18;100.00;46674.06;6152398;23;20111;-70